Time;durP1;ratioP1;P1;durP2;ratioP2;P2;SDS_P1;SDS_P2;PMS_P1;PMS_P2;Temp;Humidity;BMP_temperature;BMP_pressure;BME280_temperature;BME280_humidity;BME280_pressure;Samples;Min_cycle;Max_cycle;Signal;HPM_P1;HPM_P2
2023/12/25 00:00:33;;;;;;;0.98;0.60;;;;;;;-146.82;100.00;71671.09;5036724;28;20064;-85
2023/12/25 00:02:58;;;;;;;1.50;0.70;;;;;;;-146.82;100.00;71671.09;5036393;28;20477;-86
2023/12/25 00:05:24;;;;;;;0.95;0.75;;;;;;;-146.82;100.00;71671.09;5034950;28;20032;-85
2023/12/25 00:07:49;;;;;;;0.95;0.60;;;;;;;-146.82;100.00;71671.09;5035178;28;20037;-85
2023/12/25 00:10:15;;;;;;;1.65;0.50;;;;;;;-146.82;100.00;71671.09;5036021;28;20116;-84
2023/12/25 00:12:40;;;;;;;1.02;0.60;;;;;;;-146.82;100.00;71671.09;5035023;28;20029;-86
2023/12/25 00:15:06;;;;;;;1.33;0.65;;;;;;;-146.82;100.00;71671.09;5034661;28;20463;-85
2023/12/25 00:17:31;;;;;;;0.40;0.32;;;;;;;-146.82;100.00;71671.09;5035278;28;20065;-86
2023/12/25 00:19:57;;;;;;;1.00;0.50;;;;;;;-146.82;100.00;71671.09;5034750;28;20029;-84
2023/12/25 00:22:22;;;;;;;0.70;0.50;;;;;;;-146.82;100.00;71671.09;5035239;28;20087;-84
2023/12/25 00:24:47;;;;;;;0.40;0.30;;;;;;;-146.82;100.00;71671.09;5035651;28;20447;-83
2023/12/25 00:27:13;;;;;;;0.52;0.40;;;;;;;-146.82;100.00;71671.09;5034708;28;20440;-85
2023/12/25 00:29:38;;;;;;;0.73;0.52;;;;;;;-146.82;100.00;71671.09;5035906;28;20120;-85
2023/12/25 00:32:04;;;;;;;1.05;0.63;;;;;;;-146.82;100.00;71671.09;5034939;28;20037;-85
2023/12/25 00:34:30;;;;;;;0.63;0.30;;;;;;;-146.82;100.00;71671.09;5035575;28;20064;-85
2023/12/25 00:36:55;;;;;;;1.33;0.57;;;;;;;-146.82;100.00;71671.09;5036133;28;20029;-85
2023/12/25 00:39:21;;;;;;;0.82;0.60;;;;;;;-146.82;100.00;71671.09;5036064;28;20032;-84
2023/12/25 00:41:46;;;;;;;0.50;0.50;;;;;;;-146.82;100.00;71671.09;5036838;28;20044;-82
2023/12/25 00:44:12;;;;;;;1.00;0.55;;;;;;;-146.82;100.00;71671.09;5038879;28;20030;-84
2023/12/25 00:46:37;;;;;;;0.35;0.32;;;;;;;-146.82;100.00;71671.09;5038733;28;20441;-84
2023/12/25 00:49:03;;;;;;;0.88;0.38;;;;;;;-146.82;100.00;71671.09;5040186;28;20032;-84
2023/12/25 00:51:29;;;;;;;0.77;0.38;;;;;;;-146.82;100.00;71671.09;5034778;28;20047;-83
2023/12/25 00:53:54;;;;;;;1.35;0.60;;;;;;;-146.82;100.00;71671.09;5036007;28;20068;-84
2023/12/25 00:56:19;;;;;;;0.30;0.30;;;;;;;-146.82;100.00;71671.09;5034193;28;20044;-84
2023/12/25 00:58:45;;;;;;;0.43;0.28;;;;;;;-146.82;100.00;71671.09;5035685;28;20352;-84
2023/12/25 01:01:10;;;;;;;1.00;0.30;;;;;;;-146.82;100.00;71671.09;5035366;28;20025;-84
2023/12/25 01:03:36;;;;;;;0.32;0.30;;;;;;;-146.82;100.00;71671.09;5035037;28;20352;-83
2023/12/25 01:06:03;;;;;;;1.33;0.50;;;;;;;-146.82;100.00;71671.09;5035341;28;20114;-83
2023/12/25 01:08:28;;;;;;;0.75;0.50;;;;;;;-146.82;100.00;71671.09;5035458;28;20032;-84
2023/12/25 01:10:54;;;;;;;1.27;0.45;;;;;;;-146.82;100.00;71671.09;5035208;28;20033;-83
2023/12/25 01:13:20;;;;;;;1.20;0.52;;;;;;;-146.82;100.00;71671.09;5035127;28;20034;-84
2023/12/25 01:15:45;;;;;;;1.02;0.40;;;;;;;-146.82;100.00;71671.09;5017415;28;20032;-83
2023/12/25 01:18:11;;;;;;;1.15;0.40;;;;;;;-146.82;100.00;71671.09;5034062;28;20112;-84
2023/12/25 01:20:36;;;;;;;0.85;0.60;;;;;;;-146.82;100.00;71671.09;5038154;28;20049;-84
2023/12/25 01:23:02;;;;;;;0.60;0.55;;;;;;;-146.82;100.00;71671.09;5047934;28;20106;-84
2023/12/25 01:25:27;;;;;;;0.32;0.20;;;;;;;-146.82;100.00;71671.09;5037693;28;20497;-83
2023/12/25 01:27:53;;;;;;;0.30;0.30;;;;;;;-146.82;100.00;71671.09;5033695;28;20053;-83
2023/12/25 01:30:18;;;;;;;0.43;0.40;;;;;;;-146.82;100.00;71671.09;5035043;28;20032;-83
2023/12/25 01:32:44;;;;;;;0.90;0.55;;;;;;;-146.82;100.00;71671.09;5034891;28;20059;-83
2023/12/25 01:35:10;;;;;;;0.68;0.28;;;;;;;-146.82;100.00;71671.09;5035542;28;20029;-84
2023/12/25 01:37:35;;;;;;;0.28;0.20;;;;;;;-146.82;100.00;71671.09;5035610;28;20021;-85
2023/12/25 01:40:01;;;;;;;0.40;0.40;;;;;;;-146.82;100.00;71671.09;5033802;28;20029;-84
2023/12/25 01:42:27;;;;;;;1.23;0.35;;;;;;;-146.82;100.00;71671.09;5034409;28;20498;-82
2023/12/25 01:44:53;;;;;;;1.30;0.35;;;;;;;-146.82;100.00;71671.09;5034929;28;20079;-83
2023/12/25 01:47:19;;;;;;;2.28;0.60;;;;;;;-146.82;100.00;71671.09;5036823;28;20108;-85
2023/12/25 01:49:45;;;;;;;1.10;0.40;;;;;;;-146.82;100.00;71671.09;5041141;28;20040;-84
2023/12/25 01:52:11;;;;;;;0.50;0.50;;;;;;;-146.82;100.00;71671.09;5042015;28;20029;-83
2023/12/25 01:54:38;;;;;;;0.52;0.30;;;;;;;-146.82;100.00;71671.09;5058811;28;20028;-83
2023/12/25 01:57:04;;;;;;;1.70;0.50;;;;;;;-146.82;100.00;71671.09;5058614;28;20088;-83
2023/12/25 01:59:30;;;;;;;0.45;0.40;;;;;;;-146.82;100.00;71671.09;5051846;28;20052;-84
2023/12/25 02:01:59;;;;;;;0.40;0.40;;;;;;;-146.82;100.00;71671.09;5051359;28;20025;-83
2023/12/25 02:04:25;;;;;;;2.10;0.30;;;;;;;-146.82;100.00;71671.09;5041882;28;20045;-83
2023/12/25 02:06:51;;;;;;;0.95;0.75;;;;;;;-146.82;100.00;71671.09;5022108;28;20047;-84
2023/12/25 02:09:18;;;;;;;0.68;0.40;;;;;;;-146.82;100.00;71671.09;5033202;28;20113;-84
2023/12/25 02:11:43;;;;;;;0.40;0.40;;;;;;;-146.82;100.00;71671.09;5034997;28;20029;-84
2023/12/25 02:14:10;;;;;;;0.77;0.40;;;;;;;-146.82;100.00;71671.09;5036507;28;20025;-85
2023/12/25 02:16:36;;;;;;;2.47;0.40;;;;;;;-146.82;100.00;71671.09;5034744;28;20057;-84
2023/12/25 02:19:04;;;;;;;0.40;0.30;;;;;;;-146.82;100.00;71671.09;5024004;28;20025;-83
2023/12/25 02:21:29;;;;;;;1.48;0.50;;;;;;;-146.82;100.00;71671.09;5044718;28;20040;-84
2023/12/25 02:23:58;;;;;;;1.27;0.50;;;;;;;-146.82;100.00;71671.09;5050666;28;20053;-83
2023/12/25 02:26:24;;;;;;;0.60;0.40;;;;;;;-146.82;100.00;71671.09;5049496;28;20091;-83
2023/12/25 02:28:49;;;;;;;0.43;0.30;;;;;;;-146.82;100.00;71671.09;5039688;28;20418;-83
2023/12/25 02:31:16;;;;;;;1.75;0.52;;;;;;;-146.82;100.00;71671.09;5035184;28;20030;-82
2023/12/25 02:33:42;;;;;;;1.20;0.47;;;;;;;-146.82;100.00;71671.09;5034179;28;20386;-83
2023/12/25 02:36:07;;;;;;;0.63;0.40;;;;;;;-146.82;100.00;71671.09;5033898;28;20462;-83
2023/12/25 02:38:33;;;;;;;2.03;0.40;;;;;;;-146.82;100.00;71671.09;5015876;28;20462;-84
2023/12/25 02:40:58;;;;;;;0.98;0.35;;;;;;;-146.82;100.00;71671.09;5033462;28;20025;-83
2023/12/25 02:43:24;;;;;;;2.50;0.68;;;;;;;-146.82;100.00;71671.09;5033611;28;20186;-84
2023/12/25 02:45:49;;;;;;;0.85;0.40;;;;;;;-146.82;100.00;71671.09;5031987;28;20498;-83
2023/12/25 02:48:14;;;;;;;0.70;0.50;;;;;;;-146.82;100.00;71671.09;5033569;28;20025;-83
2023/12/25 02:50:40;;;;;;;1.25;0.35;;;;;;;-146.82;100.00;71671.09;5033736;28;20018;-83
2023/12/25 02:53:05;;;;;;;0.70;0.43;;;;;;;-146.82;100.00;71671.09;5033399;28;20029;-83
2023/12/25 02:55:31;;;;;;;0.80;0.38;;;;;;;-146.82;100.00;71671.09;5033525;28;20049;-84
2023/12/25 02:57:56;;;;;;;0.95;0.30;;;;;;;-146.82;100.00;71671.09;5033494;28;20017;-83
2023/12/25 03:00:22;;;;;;;2.03;0.38;;;;;;;-146.82;100.00;71671.09;5033233;28;20467;-82
2023/12/25 03:02:47;;;;;;;0.38;0.28;;;;;;;-146.82;100.00;71671.09;5033576;28;20021;-83
2023/12/25 03:05:13;;;;;;;1.40;0.47;;;;;;;-146.82;100.00;71671.09;5032177;28;20025;-84
2023/12/25 03:07:38;;;;;;;0.73;0.55;;;;;;;-146.82;100.00;71671.09;5033205;28;20025;-83
2023/12/25 03:10:04;;;;;;;0.52;0.30;;;;;;;-146.82;100.00;71671.09;5033580;28;20445;-84
2023/12/25 03:12:30;;;;;;;2.38;0.40;;;;;;;-146.82;100.00;71671.09;5033582;28;20040;-82
2023/12/25 03:14:55;;;;;;;1.65;0.35;;;;;;;-146.82;100.00;71671.09;5032904;28;20486;-83
2023/12/25 03:17:20;;;;;;;1.13;0.38;;;;;;;-146.82;100.00;71671.09;5031900;28;20013;-83
2023/12/25 03:19:46;;;;;;;0.20;0.20;;;;;;;-146.82;100.00;71671.09;5033315;28;20025;-83
2023/12/25 03:22:11;;;;;;;0.77;0.35;;;;;;;-146.82;100.00;71671.09;5031963;28;20386;-83
2023/12/25 03:24:37;;;;;;;0.30;0.30;;;;;;;-146.82;100.00;71671.09;5033098;28;20088;-83
2023/12/25 03:27:02;;;;;;;0.35;0.35;;;;;;;-146.82;100.00;71671.09;5033318;28;20076;-83
2023/12/25 03:29:28;;;;;;;0.88;0.35;;;;;;;-146.82;100.00;71671.09;5033572;28;20417;-83
2023/12/25 03:31:53;;;;;;;0.98;0.30;;;;;;;-146.82;100.00;71671.09;5033309;28;20029;-84
2023/12/25 03:34:20;;;;;;;0.60;0.30;;;;;;;-146.82;100.00;71671.09;5032089;28;20382;-84
2023/12/25 03:36:45;;;;;;;0.20;0.20;;;;;;;-146.82;100.00;71671.09;5033248;28;20021;-84
2023/12/25 03:39:11;;;;;;;0.38;0.30;;;;;;;-146.82;100.00;71671.09;5015517;28;20025;-83
2023/12/25 03:41:36;;;;;;;0.75;0.47;;;;;;;-146.82;100.00;71671.09;5033086;28;20030;-84
2023/12/25 03:44:02;;;;;;;0.57;0.50;;;;;;;-146.82;100.00;71671.09;5033084;28;20018;-83
2023/12/25 03:46:28;;;;;;;0.60;0.40;;;;;;;-146.82;100.00;71671.09;5032879;28;20029;-83
2023/12/25 03:48:54;;;;;;;1.27;0.52;;;;;;;-146.82;100.00;71671.09;5033203;28;20029;-83
2023/12/25 03:51:19;;;;;;;2.10;0.40;;;;;;;-146.82;100.00;71671.09;5033192;28;20359;-83
2023/12/25 03:53:44;;;;;;;0.45;0.40;;;;;;;-146.82;100.00;71671.09;5035975;28;20029;-83
2023/12/25 03:56:15;;;;;;;0.43;0.43;;;;;;;-146.82;100.00;71671.09;5036771;28;20033;-84
2023/12/25 03:58:40;;;;;;;3.08;0.60;;;;;;;-146.82;100.00;71671.09;5034934;28;20061;-84
2023/12/25 04:01:06;;;;;;;0.68;0.68;;;;;;;-146.82;100.00;71671.09;5035129;28;20065;-83
2023/12/25 04:03:31;;;;;;;1.30;0.50;;;;;;;-146.82;100.00;71671.09;5038711;28;20060;-82
2023/12/25 04:05:57;;;;;;;1.13;0.50;;;;;;;-146.82;100.00;71671.09;5044036;28;20021;-84
2023/12/25 04:08:22;;;;;;;1.42;0.60;;;;;;;-146.82;100.00;71671.09;5045518;28;20459;-83
2023/12/25 04:10:48;;;;;;;1.00;0.55;;;;;;;-146.82;100.00;71671.09;5045677;28;20029;-83
2023/12/25 04:13:13;;;;;;;1.08;0.70;;;;;;;-146.82;100.00;71671.09;5045456;28;20033;-84
2023/12/25 04:15:38;;;;;;;1.13;0.60;;;;;;;-146.82;100.00;71671.09;5044226;28;20018;-84
2023/12/25 04:18:04;;;;;;;1.67;0.40;;;;;;;-146.82;100.00;71671.09;5037529;28;20056;-84
2023/12/25 04:20:29;;;;;;;0.30;0.30;;;;;;;-146.82;100.00;71671.09;5036326;28;20060;-84
2023/12/25 04:22:55;;;;;;;0.38;0.38;;;;;;;-146.82;100.00;71671.09;5035684;28;20056;-84
2023/12/25 04:25:20;;;;;;;1.63;0.40;;;;;;;-146.82;100.00;71671.09;5036013;28;20463;-83
2023/12/25 04:27:46;;;;;;;0.60;0.40;;;;;;;-146.82;100.00;71671.09;5035691;28;20022;-84
2023/12/25 04:30:11;;;;;;;0.50;0.50;;;;;;;-146.82;100.00;71671.09;5035891;28;20391;-79
2023/12/25 04:32:37;;;;;;;0.68;0.50;;;;;;;-146.82;100.00;71671.09;5035969;28;20052;-81
2023/12/25 04:35:02;;;;;;;0.30;0.30;;;;;;;-146.82;100.00;71671.09;5035615;28;20359;-81
2023/12/25 04:37:28;;;;;;;5.07;1.50;;;;;;;-146.82;100.00;71671.09;5035669;28;20026;-80
2023/12/25 04:39:53;;;;;;;0.88;0.40;;;;;;;-146.82;100.00;71671.09;5034188;28;20466;-81
2023/12/25 04:42:18;;;;;;;1.13;0.40;;;;;;;-146.82;100.00;71671.09;5035339;28;20034;-81
2023/12/25 04:44:44;;;;;;;0.40;0.40;;;;;;;-146.82;100.00;71671.09;5017783;28;20028;-79
2023/12/25 04:47:09;;;;;;;1.00;0.38;;;;;;;-146.82;100.00;71671.09;5017754;28;20095;-79
2023/12/25 04:49:35;;;;;;;0.57;0.40;;;;;;;-146.82;100.00;71671.09;5034166;28;20462;-80
2023/12/25 04:52:00;;;;;;;0.50;0.50;;;;;;;-146.82;100.00;71671.09;5017545;28;20029;-80
2023/12/25 04:54:26;;;;;;;0.57;0.55;;;;;;;-146.82;100.00;71671.09;5034315;28;20532;-81
2023/12/25 04:56:53;;;;;;;0.60;0.52;;;;;;;-146.82;100.00;71671.09;5035331;28;20033;-80
2023/12/25 04:59:20;;;;;;;0.20;0.20;;;;;;;-146.82;100.00;71671.09;5034958;28;20026;-81
2023/12/25 05:01:48;;;;;;;0.88;0.43;;;;;;;-146.82;100.00;71671.09;5035297;28;20025;-81
2023/12/25 05:04:14;;;;;;;0.43;0.43;;;;;;;-146.82;100.00;71671.09;5034754;28;20474;-80
2023/12/25 05:06:40;;;;;;;1.50;0.47;;;;;;;-146.82;100.00;71671.09;5034677;28;20032;-79
2023/12/25 05:09:05;;;;;;;1.05;0.60;;;;;;;-146.82;100.00;71671.09;5035074;28;20530;-81
2023/12/25 05:11:30;;;;;;;0.60;0.60;;;;;;;-146.82;100.00;71671.09;5035104;28;20029;-81
2023/12/25 05:13:56;;;;;;;0.47;0.40;;;;;;;-146.82;100.00;71671.09;5034920;28;20022;-81
2023/12/25 05:16:21;;;;;;;0.90;0.50;;;;;;;-146.82;100.00;71671.09;5035085;28;20092;-80
2023/12/25 05:18:47;;;;;;;0.55;0.40;;;;;;;-146.82;100.00;71671.09;5034893;28;20021;-80
2023/12/25 05:21:12;;;;;;;2.15;0.40;;;;;;;-146.82;100.00;71671.09;5034696;28;20512;-80
2023/12/25 05:23:37;;;;;;;1.23;0.60;;;;;;;-146.82;100.00;71671.09;5034421;28;20077;-80
2023/12/25 05:26:03;;;;;;;1.20;0.40;;;;;;;-146.82;100.00;71671.09;5034400;28;20471;-81
2023/12/25 05:28:28;;;;;;;1.40;0.45;;;;;;;-146.82;100.00;71671.09;5033132;28;20029;-80
2023/12/25 05:30:54;;;;;;;0.20;0.20;;;;;;;-146.82;100.00;71671.09;5034641;28;20032;-80
2023/12/25 05:33:20;;;;;;;2.45;0.28;;;;;;;-146.82;100.00;71671.09;5033346;28;20509;-80
2023/12/25 05:35:46;;;;;;;0.55;0.35;;;;;;;-146.82;100.00;71671.09;5034442;28;20048;-80
2023/12/25 05:38:12;;;;;;;0.30;0.30;;;;;;;-146.82;100.00;71671.09;5034538;28;20472;-81
2023/12/25 05:40:38;;;;;;;1.98;0.45;;;;;;;-146.82;100.00;71671.09;5034485;28;20025;-81
2023/12/25 05:43:03;;;;;;;1.92;0.50;;;;;;;-146.82;100.00;71671.09;5033153;28;20028;-81
2023/12/25 05:45:29;;;;;;;4.28;0.35;;;;;;;-146.82;100.00;71671.09;5033102;28;20108;-79
2023/12/25 05:47:54;;;;;;;0.40;0.40;;;;;;;-146.82;100.00;71671.09;5033277;28;20387;-79
2023/12/25 05:50:20;;;;;;;0.40;0.40;;;;;;;-146.82;100.00;71671.09;5035264;28;20022;-80
2023/12/25 05:52:46;;;;;;;1.02;0.52;;;;;;;-146.82;100.00;71671.09;5036292;28;20083;-80
2023/12/25 05:55:11;;;;;;;0.30;0.30;;;;;;;-146.82;100.00;71671.09;5037172;28;20021;-80
2023/12/25 05:57:37;;;;;;;0.98;0.50;;;;;;;-146.82;100.00;71671.09;5034439;28;20079;-80
2023/12/25 06:00:04;;;;;;;1.08;0.40;;;;;;;-146.82;100.00;71671.09;5042428;28;20025;-81
2023/12/25 06:02:29;;;;;;;1.83;0.40;;;;;;;-146.82;100.00;71671.09;5049004;28;20089;-80
2023/12/25 06:04:55;;;;;;;0.28;0.20;;;;;;;-146.82;100.00;71671.09;5049337;28;20075;-81
2023/12/25 06:07:20;;;;;;;0.70;0.40;;;;;;;-146.82;100.00;71671.09;5052014;28;20021;-80
2023/12/25 06:09:46;;;;;;;0.63;0.50;;;;;;;-146.82;100.00;71671.09;5047566;28;20089;-80
2023/12/25 06:12:11;;;;;;;1.52;0.40;;;;;;;-146.82;100.00;71671.09;5049738;28;20040;-80
2023/12/25 06:14:36;;;;;;;2.95;0.30;;;;;;;-146.82;100.00;71671.09;5047939;28;20375;-79
2023/12/25 06:17:02;;;;;;;1.55;0.57;;;;;;;-146.82;100.00;71671.09;5016994;28;20025;-80
2023/12/25 06:19:28;;;;;;;0.68;0.50;;;;;;;-146.82;100.00;71671.09;5033351;28;20022;-81
2023/12/25 06:21:53;;;;;;;0.30;0.30;;;;;;;-146.82;100.00;71671.09;5033956;28;20025;-81
2023/12/25 06:24:18;;;;;;;2.60;0.30;;;;;;;-146.82;100.00;71671.09;5033551;28;20049;-81
2023/12/25 06:26:44;;;;;;;0.63;0.30;;;;;;;-146.82;100.00;71671.09;5033411;28;20501;-80
2023/12/25 06:29:10;;;;;;;0.52;0.40;;;;;;;-146.82;100.00;71671.09;5033757;28;20425;-81
2023/12/25 06:31:35;;;;;;;0.43;0.30;;;;;;;-146.82;100.00;71671.09;5032466;28;20033;-80
2023/12/25 06:34:01;;;;;;;0.40;0.40;;;;;;;-146.82;100.00;71671.09;5033608;28;20021;-80
2023/12/25 06:36:27;;;;;;;0.20;0.20;;;;;;;-146.82;100.00;71671.09;5034059;28;20026;-81
2023/12/25 06:38:52;;;;;;;0.60;0.50;;;;;;;-146.82;100.00;71671.09;5033619;28;20072;-80
2023/12/25 06:41:18;;;;;;;0.30;0.30;;;;;;;-146.82;100.00;71671.09;5033238;28;20029;-81
2023/12/25 06:43:43;;;;;;;1.10;0.50;;;;;;;-146.82;100.00;71671.09;5033723;28;20462;-80
2023/12/25 06:46:08;;;;;;;0.65;0.30;;;;;;;-146.82;100.00;71671.09;5033345;28;20029;-80
2023/12/25 06:48:34;;;;;;;0.50;0.40;;;;;;;-146.82;100.00;71671.09;5033613;28;20078;-80
2023/12/25 06:51:00;;;;;;;0.45;0.45;;;;;;;-146.82;100.00;71671.09;5032283;28;20458;-80
2023/12/25 06:53:25;;;;;;;2.63;0.45;;;;;;;-146.82;100.00;71671.09;5032119;28;20064;-81
2023/12/25 06:55:50;;;;;;;0.60;0.35;;;;;;;-146.82;100.00;71671.09;5033151;28;20068;-80
2023/12/25 06:58:16;;;;;;;0.82;0.60;;;;;;;-146.82;100.00;71671.09;5033456;28;20029;-81
2023/12/25 07:00:41;;;;;;;0.77;0.40;;;;;;;-146.82;100.00;71671.09;5033375;28;20029;-81
2023/12/25 07:03:07;;;;;;;2.10;0.40;;;;;;;-146.82;100.00;71671.09;5033262;28;20429;-79
2023/12/25 07:05:33;;;;;;;0.57;0.35;;;;;;;-146.82;100.00;71671.09;5033335;28;20425;-80
2023/12/25 07:07:58;;;;;;;0.47;0.40;;;;;;;-146.82;100.00;71671.09;5032130;28;20033;-80
2023/12/25 07:10:24;;;;;;;0.73;0.40;;;;;;;-146.82;100.00;71671.09;5031830;28;20116;-80
2023/12/25 07:12:50;;;;;;;0.40;0.40;;;;;;;-146.82;100.00;71671.09;5033175;28;20025;-81
2023/12/25 07:15:16;;;;;;;0.85;0.45;;;;;;;-146.82;100.00;71671.09;5031807;28;20471;-81
2023/12/25 07:17:41;;;;;;;0.40;0.40;;;;;;;-146.82;100.00;71671.09;5032246;28;20116;-81
2023/12/25 07:20:07;;;;;;;1.77;0.68;;;;;;;-146.82;100.00;71671.09;5033135;28;20108;-82
2023/12/25 07:22:32;;;;;;;1.25;0.43;;;;;;;-146.82;100.00;71671.09;5032956;28;20536;-80
2023/12/25 07:25:04;;;;;;;1.10;0.68;;;;;;;-146.82;100.00;71671.09;5011829;28;20042;-81
2023/12/25 07:27:31;;;;;;;0.80;0.55;;;;;;;-146.82;100.00;71671.09;5015749;28;20142;-81
2023/12/25 07:29:56;;;;;;;2.30;0.60;;;;;;;-146.82;100.00;71671.09;5016010;28;20037;-81
2023/12/25 07:32:22;;;;;;;0.88;0.38;;;;;;;-146.82;100.00;71671.09;5016095;28;20037;-80
2023/12/25 07:34:47;;;;;;;0.52;0.50;;;;;;;-146.82;100.00;71671.09;4999337;28;20041;-81
2023/12/25 07:37:12;;;;;;;0.45;0.30;;;;;;;-146.82;100.00;71671.09;5016875;28;20026;-79
2023/12/25 07:39:40;;;;;;;0.30;0.30;;;;;;;-146.82;100.00;71671.09;5016590;28;20216;-81
2023/12/25 07:42:06;;;;;;;0.85;0.40;;;;;;;-146.82;100.00;71671.09;5015645;28;20026;-80
2023/12/25 07:44:31;;;;;;;0.35;0.30;;;;;;;-146.82;100.00;71671.09;5016894;28;20029;-80
2023/12/25 07:46:56;;;;;;;0.30;0.30;;;;;;;-146.82;100.00;71671.09;5015167;28;20026;-79
2023/12/25 07:49:22;;;;;;;0.43;0.40;;;;;;;-146.82;100.00;71671.09;5016549;28;20029;-81
2023/12/25 07:51:47;;;;;;;0.90;0.57;;;;;;;-146.82;100.00;71671.09;5015335;28;20117;-81
2023/12/25 07:54:13;;;;;;;0.80;0.65;;;;;;;-146.82;100.00;71671.09;5016437;28;20026;-81
2023/12/25 07:56:38;;;;;;;0.55;0.32;;;;;;;-146.82;100.00;71671.09;5015252;28;20036;-80
2023/12/25 07:59:04;;;;;;;0.47;0.47;;;;;;;-146.82;100.00;71671.09;5016630;28;20037;-80
2023/12/25 08:01:29;;;;;;;0.80;0.50;;;;;;;-146.82;100.00;71671.09;5015207;28;20037;-81
2023/12/25 08:03:54;;;;;;;2.38;0.60;;;;;;;-146.82;100.00;71671.09;5016523;28;20033;-81
2023/12/25 08:06:20;;;;;;;2.50;0.45;;;;;;;-146.82;100.00;71671.09;5016603;28;20029;-79
2023/12/25 08:08:47;;;;;;;1.98;0.50;;;;;;;-146.82;100.00;71671.09;5014846;28;20030;-81
2023/12/25 08:11:14;;;;;;;0.65;0.50;;;;;;;-146.82;100.00;71671.09;5015087;28;20466;-80
2023/12/25 08:13:39;;;;;;;1.10;0.60;;;;;;;-146.82;100.00;71671.09;5016338;28;20486;-82
2023/12/25 08:16:08;;;;;;;0.50;0.50;;;;;;;-146.82;100.00;71671.09;5016286;28;20075;-80
2023/12/25 08:18:33;;;;;;;1.45;1.00;;;;;;;-146.82;100.00;71671.09;5016200;28;20026;-79
2023/12/25 08:20:59;;;;;;;0.47;0.47;;;;;;;-146.82;100.00;71671.09;5016224;28;20030;-82
2023/12/25 08:23:24;;;;;;;1.05;0.70;;;;;;;-146.82;100.00;71671.09;5022804;28;20045;-82
2023/12/25 08:25:50;;;;;;;1.10;0.52;;;;;;;-146.82;100.00;71671.09;5035760;28;20462;-83
2023/12/25 08:28:15;;;;;;;1.23;0.40;;;;;;;-146.82;100.00;71671.09;5035877;28;20115;-82
2023/12/25 08:30:40;;;;;;;1.75;0.80;;;;;;;-146.82;100.00;71671.09;5035945;28;20057;-81
2023/12/25 08:33:06;;;;;;;0.93;0.57;;;;;;;-146.82;100.00;71671.09;5034911;28;20067;-80
2023/12/25 08:35:31;;;;;;;0.70;0.60;;;;;;;-146.82;100.00;71671.09;5035720;28;20171;-82
2023/12/25 08:37:57;;;;;;;1.20;0.80;;;;;;;-146.82;100.00;71671.09;5034818;28;20048;-81
2023/12/25 08:40:22;;;;;;;1.58;0.88;;;;;;;-146.82;100.00;71671.09;5035744;28;20424;-81
2023/12/25 08:42:48;;;;;;;0.80;0.52;;;;;;;-146.82;100.00;71671.09;5035391;28;20025;-81
2023/12/25 08:45:14;;;;;;;0.80;0.57;;;;;;;-146.82;100.00;71671.09;5035476;28;20375;-81
2023/12/25 08:47:40;;;;;;;0.85;0.50;;;;;;;-146.82;100.00;71671.09;5035450;28;20466;-81
2023/12/25 08:50:07;;;;;;;3.30;0.90;;;;;;;-146.82;100.00;71671.09;5035160;28;20036;-80
2023/12/25 08:52:32;;;;;;;1.00;0.90;;;;;;;-146.82;100.00;71671.09;5035263;28;20490;-82
2023/12/25 08:54:58;;;;;;;1.23;0.75;;;;;;;-146.82;100.00;71671.09;5033905;28;20025;-82
2023/12/25 08:57:23;;;;;;;0.98;0.50;;;;;;;-146.82;100.00;71671.09;5035088;28;20024;-82
2023/12/25 08:59:50;;;;;;;1.08;0.70;;;;;;;-146.82;100.00;71671.09;5033997;28;20025;-81
2023/12/25 09:02:17;;;;;;;1.10;0.88;;;;;;;-146.82;100.00;71671.09;5034076;28;20017;-80
2023/12/25 09:04:42;;;;;;;0.98;0.52;;;;;;;-146.82;100.00;71671.09;5017735;28;20114;-80
2023/12/25 09:07:08;;;;;;;1.35;0.68;;;;;;;-146.82;100.00;71671.09;5035344;28;20050;-81
2023/12/25 09:09:33;;;;;;;1.40;0.85;;;;;;;-146.82;100.00;71671.09;5035893;28;20463;-81
2023/12/25 09:11:59;;;;;;;1.10;0.60;;;;;;;-146.82;100.00;71671.09;5035747;28;20037;-80
2023/12/25 09:14:24;;;;;;;1.95;0.55;;;;;;;-146.82;100.00;71671.09;5034807;28;20374;-80
2023/12/25 09:16:49;;;;;;;0.73;0.50;;;;;;;-146.82;100.00;71671.09;5034918;28;20080;-81
2023/12/25 09:19:15;;;;;;;2.60;0.55;;;;;;;-146.82;100.00;71671.09;5034771;28;20101;-82
2023/12/25 09:21:40;;;;;;;1.40;0.50;;;;;;;-146.82;100.00;71671.09;5033277;28;20022;-80
2023/12/25 09:24:06;;;;;;;1.08;0.60;;;;;;;-146.82;100.00;71671.09;5034293;28;20045;-82
2023/12/25 09:26:31;;;;;;;1.27;0.50;;;;;;;-146.82;100.00;71671.09;5034949;28;20049;-82
2023/12/25 09:28:57;;;;;;;0.63;0.60;;;;;;;-146.82;100.00;71671.09;5034726;28;20025;-80
2023/12/25 09:31:22;;;;;;;0.63;0.50;;;;;;;-146.82;100.00;71671.09;5034441;28;20462;-81
2023/12/25 09:33:48;;;;;;;2.22;1.05;;;;;;;-146.82;100.00;71671.09;5016708;28;20025;-80
2023/12/25 09:36:13;;;;;;;1.13;0.57;;;;;;;-146.82;100.00;71671.09;5034387;28;20025;-80
2023/12/25 09:38:40;;;;;;;3.83;0.93;;;;;;;-146.82;100.00;71671.09;5034387;28;20029;-81
2023/12/25 09:41:11;;;;;;;0.82;0.70;;;;;;;-146.82;100.00;71671.09;5034413;28;20048;-83
2023/12/25 09:43:44;;;;;;;1.63;1.00;;;;;;;-146.82;100.00;71671.09;5034639;28;20037;-80
2023/12/25 09:46:09;;;;;;;1.45;0.88;;;;;;;-146.82;100.00;71671.09;5033962;28;20021;-81
2023/12/25 09:48:36;;;;;;;0.88;0.80;;;;;;;-146.82;100.00;71671.09;5035082;28;20029;-80
2023/12/25 09:51:03;;;;;;;1.25;0.75;;;;;;;-146.82;100.00;71671.09;5033762;28;20107;-82
2023/12/25 09:53:29;;;;;;;1.92;0.80;;;;;;;-146.82;100.00;71671.09;5034259;28;20027;-81
2023/12/25 09:55:54;;;;;;;2.03;1.10;;;;;;;-146.82;100.00;71671.09;5034209;28;20018;-80
2023/12/25 09:58:20;;;;;;;1.40;0.93;;;;;;;-146.82;100.00;71671.09;5033025;28;20071;-81
2023/12/25 10:00:46;;;;;;;1.70;1.02;;;;;;;-146.82;100.00;71671.09;5032781;28;20021;-82
2023/12/25 10:03:12;;;;;;;1.08;0.90;;;;;;;-146.82;100.00;71671.09;5032805;28;20021;-80
2023/12/25 10:05:37;;;;;;;2.08;1.10;;;;;;;-146.82;100.00;71671.09;5034209;28;20067;-80
2023/12/25 10:08:03;;;;;;;1.25;1.00;;;;;;;-146.82;100.00;71671.09;5016422;28;20057;-80
2023/12/25 10:10:29;;;;;;;1.42;0.85;;;;;;;-146.82;100.00;71671.09;5049784;28;20021;-80
2023/12/25 10:12:56;;;;;;;0.57;0.57;;;;;;;-146.82;100.00;71671.09;5056946;28;20016;-82
2023/12/25 10:15:23;;;;;;;1.60;0.80;;;;;;;-146.82;100.00;71671.09;5056475;28;20025;-85
2023/12/25 10:18:00;;;;;;;0.88;0.75;;;;;;;-146.82;100.00;71671.09;5035071;28;20085;-80
2023/12/25 10:20:25;;;;;;;2.55;0.95;;;;;;;-146.82;100.00;71671.09;5048879;28;20049;-84
2023/12/25 10:22:51;;;;;;;1.10;0.85;;;;;;;-146.82;100.00;71671.09;5048314;28;20040;-81
2023/12/25 10:25:16;;;;;;;1.33;0.80;;;;;;;-146.82;100.00;71671.09;5045710;28;20033;-82
2023/12/25 10:27:43;;;;;;;0.88;0.60;;;;;;;-146.82;100.00;71671.09;5034909;28;20022;-82
2023/12/25 10:30:14;;;;;;;0.57;0.57;;;;;;;-146.82;100.00;71671.09;5034466;28;20028;-80
2023/12/25 10:32:40;;;;;;;0.73;0.60;;;;;;;-146.82;100.00;71671.09;5033023;28;20486;-81
2023/12/25 10:35:13;;;;;;;2.03;0.70;;;;;;;-146.82;100.00;71671.09;5034283;28;20032;-82
2023/12/25 10:37:40;;;;;;;0.47;0.47;;;;;;;-146.82;100.00;71671.09;5034405;28;20100;-81
2023/12/25 10:40:25;;;;;;;1.02;0.70;;;;;;;-146.82;100.00;71671.09;5034082;28;20030;-83
2023/12/25 10:42:52;;;;;;;2.72;0.60;;;;;;;-146.82;100.00;71671.09;5033554;28;20033;-81
2023/12/25 10:45:22;;;;;;;1.23;0.85;;;;;;;-146.82;100.00;71671.09;5033894;28;20025;-83
2023/12/25 10:47:50;;;;;;;0.95;0.50;;;;;;;-146.82;100.00;71671.09;5032794;28;20030;-82
2023/12/25 10:50:17;;;;;;;2.38;0.68;;;;;;;-146.82;100.00;71671.09;5032473;28;20373;-80
2023/12/25 10:52:43;;;;;;;1.45;0.70;;;;;;;-146.82;100.00;71671.09;5015869;28;20061;-81
2023/12/25 10:55:10;;;;;;;0.60;0.60;;;;;;;-146.82;100.00;71671.09;5033679;28;20072;-82
2023/12/25 10:57:36;;;;;;;2.33;0.80;;;;;;;-146.82;100.00;71671.09;5032678;28;20474;-80
2023/12/25 11:00:04;;;;;;;2.45;0.93;;;;;;;-146.82;100.00;71671.09;5033601;28;20108;-80
2023/12/25 11:02:32;;;;;;;2.75;0.80;;;;;;;-146.82;100.00;71671.09;5037687;28;20037;-83